createdAt,value
2023-05-20T00:00:38.229Z,99.90
2023-05-20T00:03:05.100Z,99.90
2023-05-20T00:05:31.819Z,99.90
2023-05-20T00:07:59.538Z,99.90
2023-05-20T00:10:26.295Z,99.90
2023-05-20T00:12:52.931Z,99.90
2023-05-20T00:15:19.473Z,99.90
2023-05-20T00:17:45.995Z,99.90
2023-05-20T00:20:12.674Z,99.90
2023-05-20T00:22:39.251Z,99.90
2023-05-20T00:25:06.092Z,99.90
2023-05-20T00:27:32.657Z,99.90
2023-05-20T00:29:59.217Z,99.90
2023-05-20T00:32:26.139Z,99.90
2023-05-20T00:34:57.420Z,99.90
2023-05-20T00:37:24.241Z,99.90
2023-05-20T00:39:51.119Z,99.90
2023-05-20T00:42:24.633Z,99.90
2023-05-20T00:44:51.465Z,99.90
2023-05-20T00:47:18.897Z,99.90
2023-05-20T00:49:47.574Z,99.90
2023-05-20T00:52:17.344Z,99.90
2023-05-20T00:54:44.424Z,99.90
2023-05-20T00:57:11.203Z,99.90
2023-05-20T00:59:38.321Z,99.90
2023-05-20T01:02:05.389Z,99.90
2023-05-20T01:04:32.427Z,99.90
2023-05-20T01:07:00.926Z,99.90
2023-05-20T01:09:27.781Z,99.90
2023-05-20T01:11:56.775Z,99.90
2023-05-20T01:14:24.970Z,99.90
2023-05-20T01:16:52.289Z,99.90
2023-05-20T01:19:45.170Z,99.90
2023-05-20T01:22:12.944Z,99.90
2023-05-20T01:24:43.313Z,99.90
2023-05-20T01:27:10.939Z,99.90
2023-05-20T01:29:37.851Z,99.90
2023-05-20T01:32:06.305Z,99.90
2023-05-20T01:34:33.942Z,99.90
2023-05-20T01:37:01.042Z,99.90
2023-05-20T01:39:27.841Z,99.90
2023-05-20T01:41:55.089Z,99.90
2023-05-20T01:44:21.976Z,99.90
2023-05-20T01:46:49.161Z,99.90
2023-05-20T01:49:15.838Z,99.90
2023-05-20T01:51:42.431Z,99.90
2023-05-20T01:54:08.969Z,99.90
2023-05-20T01:56:35.541Z,99.90
2023-05-20T01:59:02.089Z,99.90
2023-05-20T02:01:28.757Z,99.90
2023-05-20T02:03:55.537Z,99.90
2023-05-20T02:06:22.274Z,99.90
2023-05-20T02:08:48.843Z,99.90
2023-05-20T02:11:15.391Z,99.90
2023-05-20T02:13:41.966Z,99.90
2023-05-20T02:16:08.579Z,99.90
2023-05-20T02:18:35.335Z,99.90
2023-05-20T02:21:05.221Z,99.90
2023-05-20T02:23:31.813Z,99.90
2023-05-20T02:25:58.368Z,99.90
2023-05-20T02:28:24.934Z,99.90
2023-05-20T02:30:51.721Z,99.90
2023-05-20T02:33:18.773Z,99.90
2023-05-20T02:35:45.423Z,99.90
2023-05-20T02:38:15.008Z,99.90
2023-05-20T02:40:44.964Z,99.90
2023-05-20T02:43:11.512Z,99.90
2023-05-20T02:45:38.112Z,99.90
2023-05-20T02:48:04.819Z,99.90
2023-05-20T02:50:31.387Z,99.90
2023-05-20T02:52:58.112Z,99.90
2023-05-20T02:55:24.664Z,99.90
2023-05-20T02:57:51.221Z,99.90
2023-05-20T03:00:18.797Z,99.90
2023-05-20T03:02:45.454Z,99.90
2023-05-20T03:05:12.307Z,99.90
2023-05-20T03:07:38.915Z,99.90
2023-05-20T03:10:06.609Z,99.90
2023-05-20T03:12:33.196Z,99.90
2023-05-20T03:15:01.011Z,99.90
2023-05-20T03:17:27.617Z,99.90
2023-05-20T03:19:54.480Z,99.90
2023-05-20T03:22:21.221Z,99.90
2023-05-20T03:24:48.169Z,99.90
2023-05-20T03:27:14.720Z,99.90
2023-05-20T03:29:41.344Z,99.90
2023-05-20T03:32:10.102Z,99.90
2023-05-20T03:34:38.127Z,99.90
2023-05-20T03:37:04.851Z,99.90
2023-05-20T03:39:31.342Z,99.90
2023-05-20T03:41:57.881Z,99.90
2023-05-20T03:44:24.391Z,99.90
2023-05-20T03:46:51.253Z,99.90
2023-05-20T03:49:17.884Z,99.90
2023-05-20T03:51:44.565Z,99.90
2023-05-20T03:54:11.889Z,99.90
2023-05-20T03:56:38.431Z,99.90
2023-05-20T03:59:05.492Z,99.90
2023-05-20T04:01:32.103Z,99.90
2023-05-20T04:03:58.745Z,99.90
2023-05-20T04:06:26.563Z,99.90
2023-05-20T04:08:53.413Z,99.90
2023-05-20T04:11:20.009Z,99.90
2023-05-20T04:13:46.590Z,99.90
2023-05-20T04:16:13.230Z,99.90
2023-05-20T04:18:40.977Z,99.90
2023-05-20T04:21:08.234Z,99.90
2023-05-20T04:23:34.840Z,99.90
2023-05-20T04:26:02.768Z,99.90
2023-05-20T04:28:31.274Z,99.90
2023-05-20T04:30:58.855Z,99.90
2023-05-20T04:33:26.502Z,99.90
2023-05-20T04:35:53.116Z,99.90
2023-05-20T04:38:19.705Z,99.90
2023-05-20T04:40:46.435Z,99.90
2023-05-20T04:43:12.963Z,99.90
2023-05-20T04:45:40.302Z,99.90
2023-05-20T04:48:06.923Z,99.90
2023-05-20T04:50:34.803Z,99.90
2023-05-20T04:53:01.388Z,99.90
2023-05-20T04:55:28.698Z,99.90
2023-05-20T04:57:55.367Z,99.90
2023-05-20T05:00:21.942Z,99.90
2023-05-20T05:02:48.609Z,99.90
2023-05-20T05:05:15.444Z,99.90
2023-05-20T05:07:42.019Z,99.90
2023-05-20T05:10:08.853Z,99.90
2023-05-20T05:12:35.452Z,99.90
2023-05-20T05:15:01.985Z,99.90
2023-05-20T05:17:28.772Z,99.90
2023-05-20T05:19:55.594Z,99.90
2023-05-20T05:22:22.227Z,99.90
2023-05-20T05:24:48.773Z,99.90
2023-05-20T05:27:15.321Z,99.90
2023-05-20T05:29:41.811Z,99.90
2023-05-20T05:32:08.403Z,99.90
2023-05-20T05:34:34.994Z,99.90
2023-05-20T05:37:01.533Z,99.90
2023-05-20T05:39:28.124Z,99.90
2023-05-20T05:41:56.091Z,99.90
2023-05-20T05:44:22.637Z,99.90
2023-05-20T05:46:49.308Z,99.90
2023-05-20T05:49:15.889Z,99.90
2023-05-20T05:51:42.492Z,99.90
2023-05-20T05:54:09.060Z,99.90
2023-05-20T05:56:35.662Z,99.90
2023-05-20T05:59:02.432Z,99.90
2023-05-20T06:01:29.073Z,99.90
2023-05-20T06:03:55.643Z,99.90
2023-05-20T06:06:22.301Z,99.90
2023-05-20T06:08:51.463Z,99.90
2023-05-20T06:11:18.014Z,99.90
2023-05-20T06:13:44.582Z,99.90
2023-05-20T06:16:11.264Z,99.90
2023-05-20T06:18:37.852Z,99.90
2023-05-20T06:21:04.616Z,99.90
2023-05-20T06:23:31.183Z,99.90
2023-05-20T06:25:59.224Z,99.90
2023-05-20T06:28:26.249Z,99.90
2023-05-20T06:30:54.761Z,99.90
2023-05-20T06:33:25.821Z,99.90
2023-05-20T06:35:56.303Z,99.90
2023-05-20T06:38:23.097Z,99.90
2023-05-20T06:40:49.952Z,99.90
2023-05-20T06:43:16.832Z,99.90
2023-05-20T06:45:44.055Z,99.90
2023-05-20T06:48:11.058Z,99.90
2023-05-20T06:50:38.053Z,99.90
2023-05-20T06:53:04.582Z,99.90
2023-05-20T06:55:31.295Z,99.90
2023-05-20T06:57:57.841Z,99.90
2023-05-20T07:00:24.490Z,99.90
2023-05-20T07:02:51.232Z,99.90
2023-05-20T07:05:17.942Z,99.90
2023-05-20T07:07:44.582Z,99.90
2023-05-20T07:10:11.260Z,99.90
2023-05-20T07:12:37.818Z,99.90
2023-05-20T07:15:04.890Z,99.90
2023-05-20T07:17:31.451Z,99.90
2023-05-20T07:19:58.035Z,99.90
2023-05-20T07:22:24.636Z,99.90
2023-05-20T07:24:51.214Z,99.90
2023-05-20T07:27:17.750Z,99.90
2023-05-20T07:29:44.435Z,99.90
2023-05-20T07:32:11.333Z,99.90
2023-05-20T07:34:37.959Z,99.90
2023-05-20T07:37:04.602Z,99.90
2023-05-20T07:39:31.146Z,99.90
2023-05-20T07:41:57.771Z,99.90
2023-05-20T07:44:24.379Z,99.90
2023-05-20T07:46:50.969Z,99.90
2023-05-20T07:49:17.591Z,99.90
2023-05-20T07:51:44.230Z,99.90
2023-05-20T07:54:10.913Z,99.90
2023-05-20T07:56:37.491Z,99.90
2023-05-20T07:59:04.300Z,99.90
2023-05-20T08:01:30.901Z,99.90
2023-05-20T08:03:57.556Z,99.90
2023-05-20T08:06:25.452Z,99.90
2023-05-20T08:08:56.468Z,99.90
2023-05-20T08:11:23.002Z,99.90
2023-05-20T08:13:50.005Z,99.90
2023-05-20T08:16:16.628Z,99.90
2023-05-20T08:18:43.278Z,99.90
2023-05-20T08:21:09.991Z,99.90
2023-05-20T08:23:40.211Z,99.90
2023-05-20T08:26:07.526Z,99.90
2023-05-20T08:28:34.233Z,99.90
2023-05-20T08:31:11.076Z,99.90
2023-05-20T08:33:37.805Z,99.90
2023-05-20T08:36:04.459Z,99.90
2023-05-20T08:38:31.027Z,99.90
2023-05-20T08:40:57.674Z,99.90
2023-05-20T08:43:24.599Z,99.90
2023-05-20T08:45:54.779Z,99.90
2023-05-20T08:48:22.937Z,99.90
2023-05-20T08:50:52.690Z,99.90
2023-05-20T08:53:20.216Z,99.90
2023-05-20T08:55:48.904Z,99.90
2023-05-20T08:58:15.923Z,99.90
2023-05-20T09:00:42.552Z,99.90
2023-05-20T09:03:10.080Z,99.90
2023-05-20T09:05:37.017Z,99.90
2023-05-20T09:08:07.765Z,99.90
2023-05-20T09:10:34.689Z,99.50
2023-05-20T09:13:02.500Z,99.30
2023-05-20T09:15:29.026Z,99.40
2023-05-20T09:17:55.920Z,98.80
2023-05-20T09:20:23.004Z,98.60
2023-05-20T09:22:51.841Z,98.10
2023-05-20T09:25:24.120Z,98.20
2023-05-20T09:27:51.014Z,97.90
2023-05-20T09:30:21.446Z,98.40
2023-05-20T09:32:58.405Z,98.20
2023-05-20T09:35:26.130Z,97.60
2023-05-20T09:37:54.790Z,97.10
2023-05-20T09:40:23.672Z,97.00
2023-05-20T09:42:52.561Z,97.00
2023-05-20T09:45:19.162Z,96.50
2023-05-20T09:47:46.483Z,96.00
2023-05-20T09:50:14.857Z,94.80
2023-05-20T09:52:42.081Z,94.10
2023-05-20T09:55:10.364Z,94.10
2023-05-20T09:57:37.395Z,94.00
2023-05-20T10:00:08.521Z,93.00
2023-05-20T10:02:35.518Z,92.40
2023-05-20T10:05:05.741Z,92.40
2023-05-20T10:07:56.732Z,93.10
2023-05-20T10:10:35.062Z,94.00
2023-05-20T10:13:21.542Z,94.70
2023-05-20T10:16:13.553Z,94.30
2023-05-20T10:18:46.359Z,93.90
2023-05-20T10:21:25.924Z,93.60
2023-05-20T10:23:52.488Z,94.00
2023-05-20T10:26:19.284Z,94.10
2023-05-20T10:28:46.110Z,93.70
2023-05-20T10:31:17.658Z,93.60
2023-05-20T10:33:45.444Z,93.40
2023-05-20T10:36:31.852Z,93.50
2023-05-20T10:38:59.141Z,93.80
2023-05-20T10:41:27.038Z,93.10
2023-05-20T10:44:04.055Z,93.10
2023-05-20T10:46:38.513Z,92.50
2023-05-20T10:49:20.189Z,91.60
2023-05-20T10:51:48.385Z,91.70
2023-05-20T10:54:15.234Z,90.90
2023-05-20T10:56:51.331Z,89.50
2023-05-20T10:59:18.028Z,85.50
2023-05-20T11:01:46.376Z,86.20
2023-05-20T11:04:13.872Z,88.50
2023-05-20T11:06:49.974Z,88.80
2023-05-20T11:09:16.589Z,88.60
2023-05-20T11:11:43.138Z,89.20
2023-05-20T11:14:13.624Z,90.00
2023-05-20T11:16:40.968Z,91.00
2023-05-20T11:19:08.771Z,90.50
2023-05-20T11:21:42.501Z,91.30
2023-05-20T11:24:09.084Z,91.60
2023-05-20T11:26:36.426Z,92.30
2023-05-20T11:29:04.913Z,92.70
2023-05-20T11:31:32.211Z,92.70
2023-05-20T11:34:02.256Z,92.90
2023-05-20T11:36:28.827Z,93.30
2023-05-20T11:38:57.408Z,93.40
2023-05-20T11:41:27.705Z,92.80
2023-05-20T11:43:58.232Z,92.50
2023-05-20T11:46:25.071Z,92.60
2023-05-20T11:48:55.095Z,92.20
2023-05-20T11:51:28.714Z,91.70
2023-05-20T11:54:04.787Z,91.50
2023-05-20T11:56:32.965Z,91.00
2023-05-20T11:59:00.224Z,89.10
2023-05-20T12:01:28.200Z,86.70
2023-05-20T12:03:55.289Z,86.00
2023-05-20T12:06:21.913Z,85.20
2023-05-20T12:08:48.600Z,85.10
2023-05-20T12:11:15.173Z,85.20
2023-05-20T12:13:41.836Z,85.10
2023-05-20T12:16:08.406Z,85.30
2023-05-20T12:18:34.997Z,85.30
2023-05-20T12:21:01.837Z,86.10
2023-05-20T12:23:33.931Z,88.40
2023-05-20T12:26:01.131Z,90.10
2023-05-20T12:28:27.924Z,87.40
2023-05-20T12:30:54.453Z,84.70
2023-05-20T12:33:21.158Z,83.10
2023-05-20T12:35:47.837Z,82.00
2023-05-20T12:38:14.531Z,82.10
2023-05-20T12:40:41.360Z,84.20
2023-05-20T12:43:07.995Z,85.50
2023-05-20T12:45:34.594Z,87.30
2023-05-20T12:48:01.372Z,88.30
2023-05-20T12:50:28.220Z,89.40
2023-05-20T12:52:55.046Z,89.00
2023-05-20T12:55:21.792Z,88.60
2023-05-20T12:57:48.402Z,88.50
2023-05-20T13:00:15.240Z,87.60
2023-05-20T13:02:42.644Z,87.20
2023-05-20T13:05:10.347Z,86.20
2023-05-20T13:07:37.020Z,87.50
2023-05-20T13:10:03.692Z,87.80
2023-05-20T13:12:30.413Z,88.50
2023-05-20T13:14:56.919Z,88.50
2023-05-20T13:17:23.455Z,88.70
2023-05-20T13:19:50.384Z,88.30
2023-05-20T13:22:16.990Z,89.40
2023-05-20T13:24:43.636Z,89.60
2023-05-20T13:27:10.677Z,88.90
2023-05-20T13:29:37.316Z,88.00
2023-05-20T13:32:04.277Z,85.40
2023-05-20T13:34:31.678Z,83.60
2023-05-20T13:36:58.342Z,83.50
2023-05-20T13:39:24.960Z,83.90
2023-05-20T13:41:53.475Z,84.90
2023-05-20T13:44:20.561Z,86.10
2023-05-20T13:46:47.227Z,87.70
2023-05-20T13:49:13.928Z,88.90
2023-05-20T13:51:40.484Z,88.50
2023-05-20T13:54:07.017Z,88.30
2023-05-20T13:56:34.010Z,88.40
2023-05-20T13:59:00.992Z,86.40
2023-05-20T14:01:28.432Z,86.10
2023-05-20T14:03:55.168Z,86.30
2023-05-20T14:06:22.225Z,87.00
2023-05-20T14:08:48.856Z,87.40
2023-05-20T14:11:15.412Z,86.90
2023-05-20T14:13:41.936Z,86.50
2023-05-20T14:16:08.571Z,86.10
2023-05-20T14:18:35.216Z,87.00
2023-05-20T14:21:01.838Z,87.20
2023-05-20T14:23:28.330Z,87.40
2023-05-20T14:25:54.998Z,88.00
2023-05-20T14:28:21.555Z,88.20
2023-05-20T14:30:48.250Z,87.80
2023-05-20T14:33:14.890Z,88.40
2023-05-20T14:35:41.487Z,88.60
2023-05-20T14:38:08.094Z,88.50
2023-05-20T14:40:34.915Z,88.90
2023-05-20T14:43:01.787Z,89.80
2023-05-20T14:45:28.307Z,89.20
2023-05-20T14:47:54.885Z,89.50
2023-05-20T14:50:21.630Z,89.30
2023-05-20T14:52:48.157Z,89.10
2023-05-20T14:55:14.848Z,89.70
2023-05-20T14:57:41.436Z,88.60
2023-05-20T15:00:09.325Z,89.30
2023-05-20T15:02:36.079Z,88.90
2023-05-20T15:05:02.790Z,89.60
2023-05-20T15:07:29.311Z,90.10
2023-05-20T15:09:55.876Z,90.50
2023-05-20T15:12:22.439Z,90.50
2023-05-20T15:14:48.996Z,90.30
2023-05-20T15:17:15.588Z,90.70
2023-05-20T15:19:42.272Z,90.90
2023-05-20T15:22:08.977Z,91.00
2023-05-20T15:24:35.656Z,91.10
2023-05-20T15:27:02.221Z,91.00
2023-05-20T15:29:28.784Z,90.80
2023-05-20T15:31:55.365Z,90.40
2023-05-20T15:34:21.982Z,90.30
2023-05-20T15:36:48.566Z,90.50
2023-05-20T15:39:15.276Z,90.70
2023-05-20T15:41:42.385Z,90.80
2023-05-20T15:44:09.089Z,90.50
2023-05-20T15:46:36.012Z,90.70
2023-05-20T15:49:02.782Z,91.10
2023-05-20T15:51:29.402Z,91.80
2023-05-20T15:53:55.963Z,92.30
2023-05-20T15:56:22.966Z,92.70
2023-05-20T15:58:49.629Z,93.10
2023-05-20T16:01:16.194Z,92.70
2023-05-20T16:03:43.364Z,92.90
2023-05-20T16:06:11.636Z,92.60
2023-05-20T16:08:38.636Z,92.60
2023-05-20T16:11:05.486Z,92.60
2023-05-20T16:13:32.044Z,92.30
2023-05-20T16:15:59.578Z,92.10
2023-05-20T16:18:28.432Z,92.00
2023-05-20T16:20:55.501Z,92.00
2023-05-20T16:23:22.160Z,91.90
2023-05-20T16:25:48.733Z,91.60
2023-05-20T16:28:15.696Z,91.20
2023-05-20T16:30:42.334Z,91.00
2023-05-20T16:33:08.989Z,90.90
2023-05-20T16:35:35.632Z,90.90
2023-05-20T16:38:02.237Z,91.00
2023-05-20T16:40:28.885Z,91.20
2023-05-20T16:42:55.722Z,91.40
2023-05-20T16:45:22.399Z,91.50
2023-05-20T16:47:49.044Z,91.30
2023-05-20T16:50:16.042Z,91.30
2023-05-20T16:52:42.689Z,91.80
2023-05-20T16:55:10.195Z,91.90
2023-05-20T16:57:36.846Z,92.30
2023-05-20T17:00:07.864Z,92.30
2023-05-20T17:05:05.107Z,92.60
2023-05-20T17:07:33.414Z,92.70
2023-05-20T17:10:00.260Z,92.60
2023-05-20T17:12:27.065Z,92.40
2023-05-20T17:14:53.840Z,92.40
2023-05-20T17:17:21.293Z,92.70
2023-05-20T17:19:48.083Z,93.00
2023-05-20T17:22:14.677Z,93.10
2023-05-20T17:24:41.231Z,93.20
2023-05-20T17:27:07.870Z,93.50
2023-05-20T17:29:34.435Z,93.60
2023-05-20T17:32:01.293Z,94.40
2023-05-20T17:34:27.909Z,94.60
2023-05-20T17:36:54.532Z,95.00
2023-05-20T17:39:21.447Z,95.00
2023-05-20T17:41:48.052Z,95.00
2023-05-20T17:44:14.702Z,95.00
2023-05-20T17:46:41.582Z,95.30
2023-05-20T17:49:08.282Z,95.50
2023-05-20T17:51:35.100Z,95.90
2023-05-20T17:54:01.814Z,96.30
2023-05-20T17:56:28.557Z,96.60
2023-05-20T17:58:56.242Z,97.00
2023-05-20T18:01:23.476Z,97.20
2023-05-20T18:03:50.357Z,97.50
2023-05-20T18:06:17.921Z,97.20
2023-05-20T18:08:44.598Z,96.90
2023-05-20T18:11:11.272Z,95.60
2023-05-20T18:13:37.915Z,95.40
2023-05-20T18:16:04.786Z,95.50
2023-05-20T18:18:31.415Z,95.20
2023-05-20T18:20:57.958Z,94.60
2023-05-20T18:23:24.532Z,94.10
2023-05-20T18:25:51.118Z,93.90
2023-05-20T18:28:17.650Z,93.70
2023-05-20T18:30:44.316Z,93.70
2023-05-20T18:33:11.033Z,93.80
2023-05-20T18:35:38.926Z,94.20
2023-05-20T18:38:05.685Z,94.00
2023-05-20T18:40:32.323Z,94.30
2023-05-20T18:42:59.078Z,94.30
2023-05-20T18:45:26.009Z,94.90
2023-05-20T18:47:54.136Z,95.40
2023-05-20T18:50:21.027Z,95.50
2023-05-20T18:52:50.858Z,95.30
2023-05-20T18:55:17.744Z,95.80
2023-05-20T18:57:44.250Z,96.60
2023-05-20T19:00:12.366Z,96.90
2023-05-20T19:02:40.160Z,97.40
2023-05-20T19:05:07.590Z,98.20
2023-05-20T19:07:34.263Z,98.80
2023-05-20T19:10:02.366Z,99.50
2023-05-20T19:12:29.137Z,99.90
2023-05-20T19:14:56.005Z,99.90
2023-05-20T19:17:22.866Z,99.90
2023-05-20T19:19:49.660Z,99.90
2023-05-20T19:22:16.519Z,99.90
2023-05-20T19:24:43.094Z,99.90
2023-05-20T19:27:09.644Z,99.90
2023-05-20T19:29:36.323Z,99.90
2023-05-20T19:32:03.028Z,99.90
2023-05-20T19:34:29.643Z,99.90
2023-05-20T19:36:57.061Z,99.90
2023-05-20T19:39:23.858Z,99.90
2023-05-20T19:41:50.862Z,99.90
2023-05-20T19:44:18.871Z,99.90
2023-05-20T19:46:45.448Z,99.90
2023-05-20T19:49:12.080Z,99.90
2023-05-20T19:51:38.606Z,99.90
2023-05-20T19:54:05.232Z,99.90
2023-05-20T19:56:31.784Z,99.90
2023-05-20T19:59:01.518Z,99.90
2023-05-20T20:01:28.361Z,99.90
2023-05-20T20:03:55.106Z,99.90
2023-05-20T20:06:21.831Z,99.90
2023-05-20T20:08:48.442Z,99.90
2023-05-20T20:11:15.131Z,99.90
2023-05-20T20:13:41.752Z,99.90
2023-05-20T20:16:08.591Z,99.90
2023-05-20T20:18:35.291Z,99.90
2023-05-20T20:21:05.640Z,99.90
2023-05-20T20:23:32.653Z,99.90
2023-05-20T20:25:59.191Z,99.90
2023-05-20T20:28:25.766Z,99.90
2023-05-20T20:30:53.662Z,99.90
2023-05-20T20:33:22.325Z,99.90
2023-05-20T20:35:48.915Z,99.90
2023-05-20T20:38:16.002Z,99.90
2023-05-20T20:40:42.702Z,99.90
2023-05-20T20:43:10.390Z,99.90
2023-05-20T20:45:37.271Z,99.90
2023-05-20T20:48:08.054Z,99.90
2023-05-20T20:50:35.668Z,99.90
2023-05-20T20:53:02.417Z,99.90
2023-05-20T20:55:31.676Z,99.90
2023-05-20T20:57:58.300Z,99.90
2023-05-20T21:00:26.833Z,99.90
2023-05-20T21:02:53.511Z,99.90
2023-05-20T21:05:21.201Z,99.90
2023-05-20T21:07:49.938Z,99.90
2023-05-20T21:10:17.616Z,99.90
2023-05-20T21:12:44.218Z,99.90
2023-05-20T21:15:12.460Z,99.90
2023-05-20T21:17:39.119Z,99.90
2023-05-20T21:20:09.596Z,99.90
2023-05-20T21:22:36.297Z,99.90
2023-05-20T21:25:03.069Z,99.90
2023-05-20T21:27:29.717Z,99.90
2023-05-20T21:29:56.349Z,99.90
2023-05-20T21:32:22.984Z,99.90
2023-05-20T21:34:49.521Z,99.90
2023-05-20T21:37:16.154Z,99.90
2023-05-20T21:39:45.120Z,99.90
2023-05-20T21:42:11.766Z,99.90
2023-05-20T21:44:38.264Z,99.90
2023-05-20T21:47:04.970Z,99.90
2023-05-20T21:49:31.490Z,99.90
2023-05-20T21:51:58.041Z,99.90
2023-05-20T21:54:24.582Z,99.90
2023-05-20T21:56:51.452Z,99.90
2023-05-20T21:59:18.051Z,99.90
2023-05-20T22:01:44.753Z,99.90
2023-05-20T22:04:11.918Z,99.90
2023-05-20T22:06:39.744Z,99.90
2023-05-20T22:09:06.535Z,99.90
2023-05-20T22:11:33.646Z,99.90
2023-05-20T22:14:00.326Z,99.90
2023-05-20T22:16:26.983Z,99.90
2023-05-20T22:18:54.109Z,99.90
2023-05-20T22:21:21.446Z,99.90
2023-05-20T22:23:48.285Z,99.90
2023-05-20T22:26:14.915Z,99.90
2023-05-20T22:28:41.616Z,99.90
2023-05-20T22:31:08.355Z,99.90
2023-05-20T22:33:34.967Z,99.90
2023-05-20T22:36:01.630Z,99.90
2023-05-20T22:38:29.762Z,99.90
2023-05-20T22:40:56.496Z,99.90
2023-05-20T22:43:23.612Z,99.90
2023-05-20T22:45:50.267Z,99.90
2023-05-20T22:48:16.866Z,99.90
2023-05-20T22:50:43.388Z,99.90
2023-05-20T22:53:10.015Z,99.90
2023-05-20T22:55:38.719Z,99.90
2023-05-20T22:58:05.275Z,99.90
2023-05-20T23:00:32.125Z,99.90
2023-05-20T23:02:58.820Z,99.90
2023-05-20T23:05:25.467Z,99.90
2023-05-20T23:07:52.979Z,99.90
2023-05-20T23:10:19.885Z,99.90
2023-05-20T23:12:46.447Z,99.90
2023-05-20T23:15:13.155Z,99.90
2023-05-20T23:17:39.806Z,99.90
2023-05-20T23:20:10.971Z,99.90
2023-05-20T23:22:37.939Z,99.90
2023-05-20T23:25:05.661Z,99.90
2023-05-20T23:27:32.403Z,99.90
2023-05-20T23:29:59.009Z,99.90
2023-05-20T23:32:25.728Z,99.90
2023-05-20T23:34:55.433Z,99.90
2023-05-20T23:37:22.079Z,99.90
2023-05-20T23:39:48.709Z,99.90
2023-05-20T23:42:15.322Z,99.90
2023-05-20T23:44:41.919Z,99.90
2023-05-20T23:47:09.622Z,99.90
2023-05-20T23:49:37.122Z,99.90
2023-05-20T23:52:03.820Z,99.90
2023-05-20T23:54:34.206Z,99.90
2023-05-20T23:57:01.015Z,99.90
2023-05-20T23:59:27.691Z,99.90
